Time;durP1;ratioP1;P1;durP2;ratioP2;P2;SDS_P1;SDS_P2;PMS_P1;PMS_P2;Temp;Humidity;BMP_temperature;BMP_pressure;BME280_temperature;BME280_humidity;BME280_pressure;Samples;Min_cycle;Max_cycle;Signal;HPM_P1;HPM_P2
2023/12/18 00:00:54;;;;;;;6.03;1.25;;;;;;;1.54;69.56;99103.84;5093650;28;20067;-57
2023/12/18 00:03:20;;;;;;;5.68;1.52;;;;;;;1.53;69.20;99096.00;5093341;28;20032;-56
2023/12/18 00:05:45;;;;;;;3.83;1.02;;;;;;;1.53;69.39;99104.78;5087307;28;20039;-54
2023/12/18 00:08:11;;;;;;;3.00;1.35;;;;;;;1.21;69.76;99054.66;5073179;28;20055;-54
2023/12/18 00:10:37;;;;;;;7.05;1.17;;;;;;;1.50;69.40;99101.44;5073291;28;20036;-52
2023/12/18 00:13:03;;;;;;;5.45;1.10;;;;;;;1.41;69.16;99092.25;5079927;28;20039;-56
2023/12/18 00:15:29;;;;;;;7.70;1.20;;;;;;;1.42;69.71;99097.44;5093425;28;20070;-53
2023/12/18 00:17:54;;;;;;;6.53;1.00;;;;;;;1.46;70.53;99105.19;5093336;28;20043;-53
2023/12/18 00:20:21;;;;;;;4.40;1.08;;;;;;;1.42;70.11;99093.94;5092074;28;20036;-56
2023/12/18 00:22:47;;;;;;;8.73;1.20;;;;;;;1.43;70.35;99095.66;5075911;28;20032;-55
2023/12/18 00:25:12;;;;;;;3.20;1.08;;;;;;;1.33;69.96;99084.78;5087443;28;20352;-55
2023/12/18 00:27:38;;;;;;;8.95;1.65;;;;;;;1.39;69.53;99089.72;5086405;28;20056;-53
2023/12/18 00:30:04;;;;;;;5.03;1.00;;;;;;;1.35;70.29;99098.72;5073077;28;20487;-54
2023/12/18 00:32:34;;;;;;;8.63;1.00;;;;;;;1.36;70.10;99083.75;5072695;28;20376;-56
2023/12/18 00:35:00;;;;;;;6.85;1.13;;;;;;;1.35;70.35;99082.91;5072774;28;20079;-56
2023/12/18 00:37:25;;;;;;;3.72;1.20;;;;;;;1.33;70.19;99084.78;5073102;28;20068;-53
2023/12/18 00:39:51;;;;;;;6.22;1.27;;;;;;;1.25;70.03;99073.78;5072501;28;20109;-55
2023/12/18 00:42:17;;;;;;;3.95;1.05;;;;;;;1.26;69.89;99084.25;5076955;28;20078;-54
2023/12/18 00:44:42;;;;;;;5.50;1.40;;;;;;;1.28;70.48;99090.28;5092998;28;20085;-54
2023/12/18 00:47:08;;;;;;;6.07;0.98;;;;;;;1.31;69.44;99085.78;5092882;28;20031;-54
2023/12/18 00:49:33;;;;;;;4.47;0.80;;;;;;;1.27;69.76;99077.19;5092794;28;20028;-54
2023/12/18 00:51:59;;;;;;;3.92;1.13;;;;;;;1.29;70.41;99080.56;5091492;28;20161;-55
2023/12/18 00:54:25;;;;;;;5.35;1.40;;;;;;;1.25;70.04;99072.00;5093001;28;20114;-56
2023/12/18 00:56:51;;;;;;;6.22;1.10;;;;;;;1.35;70.05;99077.63;5092505;28;20186;-52
2023/12/18 00:59:17;;;;;;;11.77;1.33;;;;;;;1.29;70.04;99078.81;5089960;28;20435;-54
2023/12/18 01:01:43;;;;;;;7.65;1.10;;;;;;;1.29;70.19;99073.53;5072418;28;20040;-56
2023/12/18 01:04:09;;;;;;;8.43;1.23;;;;;;;1.26;69.05;99084.25;5071644;28;20090;-55
2023/12/18 01:06:35;;;;;;;7.28;1.30;;;;;;;1.26;69.71;99089.53;5076381;28;20116;-53
2023/12/18 01:09:01;;;;;;;8.75;1.42;;;;;;;0.97;69.42;99035.72;5085922;28;20032;-56
2023/12/18 01:11:27;;;;;;;7.45;1.40;;;;;;;1.24;69.71;99070.31;5072924;28;20024;-54
2023/12/18 01:13:52;;;;;;;3.45;1.00;;;;;;;1.31;69.69;99076.06;5072351;28;20024;-55
2023/12/18 01:16:18;;;;;;;5.80;1.02;;;;;;;1.31;69.10;99078.72;5081402;28;20370;-54
2023/12/18 01:18:45;;;;;;;7.80;1.20;;;;;;;1.36;69.43;99084.59;5080702;28;20329;-54
2023/12/18 01:21:13;;;;;;;5.20;1.20;;;;;;;1.34;69.55;99072.44;5075452;28;20025;-56
2023/12/18 01:23:38;;;;;;;6.32;1.15;;;;;;;1.31;69.93;99072.59;5092470;28;20470;-54
2023/12/18 01:26:04;;;;;;;8.07;1.00;;;;;;;1.31;69.02;99075.22;5092183;28;20028;-55
2023/12/18 01:28:30;;;;;;;6.82;1.33;;;;;;;1.38;69.18;99071.31;5092627;28;20052;-57
2023/12/18 01:30:55;;;;;;;8.30;1.45;;;;;;;1.42;68.66;99075.47;5092628;28;20119;-50
2023/12/18 01:33:21;;;;;;;6.85;0.90;;;;;;;1.42;69.21;99075.47;5093517;28;20024;-57
2023/12/18 01:35:46;;;;;;;6.95;1.05;;;;;;;1.41;69.34;99061.47;5093147;28;20349;-53
2023/12/18 01:38:12;;;;;;;7.80;1.30;;;;;;;1.37;69.49;99067.84;5076107;28;20509;-53
2023/12/18 01:40:38;;;;;;;6.95;1.15;;;;;;;1.38;68.97;99071.31;5089219;28;20024;-56
2023/12/18 01:43:22;;;;;;;7.53;1.20;;;;;;;1.40;69.26;99067.66;5096595;28;20042;-55
2023/12/18 01:45:50;;;;;;;8.25;1.23;;;;;;;1.33;69.21;99060.16;5096289;28;20040;-56
2023/12/18 01:48:15;;;;;;;6.57;1.38;;;;;;;1.32;69.16;99056.66;5096133;28;20028;-53
2023/12/18 01:50:41;;;;;;;3.22;0.95;;;;;;;1.30;68.86;99050.63;5092684;28;20027;-55
2023/12/18 01:53:06;;;;;;;8.55;1.60;;;;;;;1.26;69.43;99052.59;5076119;28;20463;-55
2023/12/18 01:55:32;;;;;;;7.47;1.38;;;;;;;1.18;69.82;99056.59;5089229;28;20063;-58
2023/12/18 01:57:57;;;;;;;6.82;1.60;;;;;;;1.07;69.89;99051.91;5095829;28;20039;-56
2023/12/18 02:00:23;;;;;;;5.90;0.98;;;;;;;0.93;69.91;99050.84;5082371;28;20438;-55
2023/12/18 02:02:49;;;;;;;4.82;1.00;;;;;;;0.69;70.30;99038.03;5087779;28;20032;-54
2023/12/18 02:05:14;;;;;;;7.00;1.50;;;;;;;0.56;70.81;99031.72;5093580;28;20039;-55
2023/12/18 02:07:40;;;;;;;8.98;1.13;;;;;;;0.46;71.20;99036.59;5075723;28;20039;-54
2023/12/18 02:10:06;;;;;;;8.75;1.70;;;;;;;0.32;71.66;99039.09;5075660;28;20436;-56
2023/12/18 02:12:32;;;;;;;5.68;1.38;;;;;;;0.20;71.45;99025.63;5077926;28;20032;-51
2023/12/18 02:14:58;;;;;;;9.32;1.48;;;;;;;0.11;71.43;99021.69;5075354;28;20038;-56
2023/12/18 02:17:24;;;;;;;9.13;1.40;;;;;;;0.07;71.73;99025.41;5076601;28;20024;-56
2023/12/18 02:20:03;;;;;;;10.50;1.45;;;;;;;0.02;72.05;99024.78;5093807;28;20119;-57
2023/12/18 02:22:36;;;;;;;14.30;1.88;;;;;;;-0.03;72.28;99018.88;5075193;28;20029;-55
2023/12/18 02:25:01;;;;;;;6.10;1.50;;;;;;;-0.16;72.24;99019.50;5075632;28;20032;-54
2023/12/18 02:27:27;;;;;;;8.07;1.63;;;;;;;-0.23;72.75;99018.09;5091382;28;20407;-55
2023/12/18 02:29:53;;;;;;;9.15;1.65;;;;;;;-0.22;72.57;99022.44;5093866;28;20131;-52
2023/12/18 02:32:18;;;;;;;7.40;1.55;;;;;;;-0.30;72.40;99011.41;5094348;28;20032;-56
2023/12/18 02:34:44;;;;;;;6.50;1.52;;;;;;;-0.31;72.55;99007.09;5092215;28;20300;-56
2023/12/18 02:37:09;;;;;;;8.00;1.58;;;;;;;-0.42;72.44;98991.00;5073628;28;20512;-55
2023/12/18 02:39:35;;;;;;;9.10;1.80;;;;;;;-0.40;72.50;99011.03;5074237;28;20409;-55
2023/12/18 02:42:00;;;;;;;9.43;1.63;;;;;;;-0.47;72.79;99018.38;5074083;28;20040;-55
2023/12/18 02:44:26;;;;;;;8.10;1.63;;;;;;;-0.47;72.95;99010.50;5073562;28;20032;-54
2023/12/18 02:46:52;;;;;;;6.82;1.77;;;;;;;-0.74;73.04;98992.44;5073756;28;20081;-55
2023/12/18 02:49:17;;;;;;;9.07;1.40;;;;;;;-0.55;73.07;99017.03;5075137;28;20081;-58
2023/12/18 02:51:43;;;;;;;8.00;1.60;;;;;;;-0.58;73.35;99018.03;5092531;28;20032;-53
2023/12/18 02:54:08;;;;;;;4.22;1.17;;;;;;;-0.71;73.28;98994.09;5082842;28;20033;-56
2023/12/18 02:56:34;;;;;;;10.43;1.52;;;;;;;-0.68;73.61;99016.78;5073944;28;20435;-51
2023/12/18 02:58:59;;;;;;;7.05;1.42;;;;;;;-0.95;72.88;98969.84;5074038;28;20481;-58
2023/12/18 03:01:25;;;;;;;8.48;1.35;;;;;;;-0.78;73.84;99006.66;5073374;28;20036;-57
2023/12/18 03:03:50;;;;;;;6.53;1.20;;;;;;;-0.74;73.18;99007.38;5074701;28;20431;-58
2023/12/18 03:06:16;;;;;;;9.27;1.80;;;;;;;-0.79;74.01;99015.47;5090979;28;20439;-58
2023/12/18 03:08:42;;;;;;;6.10;1.50;;;;;;;-0.82;73.17;99007.75;5093890;28;20142;-55
2023/12/18 03:11:07;;;;;;;9.10;2.15;;;;;;;-0.86;73.38;99014.06;5092097;28;20455;-55
2023/12/18 03:13:33;;;;;;;6.28;1.52;;;;;;;-0.81;73.30;99012.06;5074455;28;20029;-55
2023/12/18 03:15:59;;;;;;;7.53;1.30;;;;;;;-0.86;73.95;99019.31;5073245;28;20359;-54
2023/12/18 03:18:24;;;;;;;10.25;1.50;;;;;;;-0.92;73.88;99017.81;5073721;28;20063;-55
2023/12/18 03:20:50;;;;;;;6.20;1.42;;;;;;;-0.92;73.49;99009.94;5089279;28;20454;-57
2023/12/18 03:23:15;;;;;;;8.32;1.50;;;;;;;-0.81;73.78;99022.59;5093377;28;20409;-55
2023/12/18 03:25:41;;;;;;;9.75;1.42;;;;;;;-0.79;73.51;99035.66;5077696;28;20051;-55
2023/12/18 03:28:07;;;;;;;5.13;1.30;;;;;;;-0.76;73.50;99033.72;5030473;28;1244110;-54
2023/12/18 03:30:33;;;;;;;5.53;1.20;;;;;;;-0.84;73.48;99017.47;5082274;28;20092;-57
2023/12/18 03:32:59;;;;;;;9.93;1.75;;;;;;;-0.83;74.01;99024.44;5094042;28;20032;-57
2023/12/18 03:35:25;;;;;;;11.25;2.28;;;;;;;-0.87;73.92;99017.63;5090851;28;20028;-57
2023/12/18 03:37:50;;;;;;;3.70;1.15;;;;;;;-0.87;73.84;99013.19;5077925;28;20036;-53
2023/12/18 03:40:16;;;;;;;7.68;1.52;;;;;;;-0.94;74.09;99013.59;5093892;28;20051;-54
2023/12/18 03:42:41;;;;;;;5.35;1.58;;;;;;;-0.88;74.11;99023.81;5094018;28;20028;-56
2023/12/18 03:45:08;;;;;;;5.55;1.55;;;;;;;-0.87;73.97;99028.13;5093503;28;20110;-55
2023/12/18 03:47:33;;;;;;;10.48;1.90;;;;;;;-0.93;74.26;99017.91;5092731;28;20351;-55
2023/12/18 03:49:59;;;;;;;5.32;1.50;;;;;;;-0.89;73.97;99008.97;5077103;28;20032;-59
2023/12/18 03:52:24;;;;;;;11.07;1.58;;;;;;;-1.06;74.86;98994.00;5073395;28;20028;-57
2023/12/18 03:54:50;;;;;;;8.00;1.50;;;;;;;-0.90;74.21;99033.53;5073835;28;20427;-53
2023/12/18 03:57:15;;;;;;;6.07;1.63;;;;;;;-0.80;73.85;99029.53;5072876;28;20040;-56
2023/12/18 03:59:41;;;;;;;8.45;1.92;;;;;;;-0.80;74.08;99028.72;5087940;28;20043;-54
2023/12/18 04:02:06;;;;;;;9.35;1.65;;;;;;;-0.79;74.32;99041.75;5072141;28;20085;-53
2023/12/18 04:04:32;;;;;;;8.40;1.55;;;;;;;-0.79;74.00;99033.03;5088590;28;20032;-56
2023/12/18 04:06:58;;;;;;;7.32;2.03;;;;;;;-0.71;73.80;99023.00;5086647;28;20028;-57
2023/12/18 04:09:23;;;;;;;9.77;1.50;;;;;;;-0.64;74.21;99013.06;5073342;28;20043;-56
2023/12/18 04:11:49;;;;;;;10.63;2.53;;;;;;;-0.54;74.28;99026.63;5073141;28;20040;-54
2023/12/18 04:14:15;;;;;;;8.55;1.80;;;;;;;-0.37;73.85;99026.66;5073215;28;20339;-55
2023/12/18 04:16:40;;;;;;;7.47;1.77;;;;;;;-0.37;73.48;99028.44;5073129;28;20126;-55
2023/12/18 04:19:06;;;;;;;4.35;1.27;;;;;;;-0.45;73.62;99018.28;5087203;28;20411;-56
2023/12/18 04:21:31;;;;;;;10.27;1.77;;;;;;;-0.39;73.51;99032.94;5093515;28;20092;-56
2023/12/18 04:23:57;;;;;;;11.98;1.80;;;;;;;-0.31;73.59;99036.91;5091262;28;20093;-54
2023/12/18 04:26:22;;;;;;;5.07;1.45;;;;;;;-0.24;73.53;99047.97;5093140;28;20358;-55
2023/12/18 04:28:48;;;;;;;5.90;1.38;;;;;;;-0.22;73.97;99032.09;5093031;28;20545;-58
2023/12/18 04:31:19;;;;;;;9.52;1.77;;;;;;;-0.09;73.63;99046.38;5092748;28;20115;-52
2023/12/18 04:33:44;;;;;;;10.20;1.70;;;;;;;-0.04;73.25;99040.84;5092712;28;20032;-55
2023/12/18 04:36:10;;;;;;;9.18;1.48;;;;;;;0.06;73.09;99043.88;5093422;28;20362;-52
2023/12/18 04:38:35;;;;;;;10.18;1.40;;;;;;;0.02;73.14;99037.06;5091399;28;20035;-55
2023/12/18 04:41:01;;;;;;;8.65;1.45;;;;;;;0.20;73.04;99057.22;5075999;28;20035;-53
2023/12/18 04:43:29;;;;;;;10.30;1.95;;;;;;;0.26;72.83;99061.34;5072710;28;20021;-54
2023/12/18 04:45:54;;;;;;;10.82;2.00;;;;;;;0.32;72.81;99058.38;5072790;28;20029;-54
2023/12/18 04:48:20;;;;;;;8.65;1.45;;;;;;;0.38;71.88;99051.97;5072594;28;20354;-56
2023/12/18 04:50:45;;;;;;;6.78;1.50;;;;;;;0.43;72.17;99057.84;5072448;28;20029;-56
2023/12/18 04:53:11;;;;;;;10.27;2.17;;;;;;;0.47;72.32;99063.78;5072911;28;20043;-55
2023/12/18 04:55:36;;;;;;;8.85;1.75;;;;;;;0.51;72.32;99066.19;5088335;28;20044;-54
2023/12/18 04:58:02;;;;;;;6.57;1.85;;;;;;;0.49;72.27;99035.59;5085354;28;20032;-52
2023/12/18 05:00:28;;;;;;;7.80;2.05;;;;;;;0.60;71.77;99064.00;5072578;28;20043;-53
2023/12/18 05:02:53;;;;;;;11.60;2.25;;;;;;;0.60;71.85;99043.78;5073440;28;20020;-57
2023/12/18 05:05:19;;;;;;;7.35;1.67;;;;;;;0.54;72.15;99031.78;5090887;28;20047;-51
2023/12/18 05:07:45;;;;;;;8.05;1.80;;;;;;;0.59;71.86;99042.09;5098818;28;20028;-57
2023/12/18 05:10:11;;;;;;;9.18;2.40;;;;;;;0.56;71.79;99029.91;5087665;28;20343;-56
2023/12/18 05:12:36;;;;;;;8.50;2.13;;;;;;;0.65;71.71;99046.19;5092745;28;20039;-58
2023/12/18 05:15:02;;;;;;;7.30;2.00;;;;;;;0.69;72.18;99045.09;5092462;28;20035;-54
2023/12/18 05:17:31;;;;;;;9.60;2.42;;;;;;;0.71;71.87;99045.88;5090207;28;20087;-57
2023/12/18 05:19:57;;;;;;;7.47;2.20;;;;;;;0.75;71.96;99041.28;5092396;28;20044;-56
2023/12/18 05:22:22;;;;;;;9.50;2.00;;;;;;;0.78;71.53;99046.41;5092529;28;20032;-55
2023/12/18 05:24:48;;;;;;;12.65;2.10;;;;;;;0.80;71.45;99055.91;5089596;28;20039;-53
2023/12/18 05:27:14;;;;;;;8.57;1.98;;;;;;;0.81;71.47;99056.78;5091665;28;20412;-55
2023/12/18 05:29:39;;;;;;;12.02;2.33;;;;;;;0.88;71.06;99060.78;5090924;28;20035;-55
2023/12/18 05:32:05;;;;;;;8.65;2.10;;;;;;;0.80;70.78;99045.38;5087549;28;20131;-56
2023/12/18 05:34:31;;;;;;;18.00;2.50;;;;;;;0.86;71.43;99049.47;5091627;28;20044;-53
2023/12/18 05:36:56;;;;;;;9.93;2.08;;;;;;;0.90;70.75;99053.63;5091348;28;20036;-55
2023/12/18 05:39:22;;;;;;;11.68;1.70;;;;;;;0.84;71.01;99053.97;5090060;28;20420;-58
2023/12/18 05:41:47;;;;;;;9.25;2.28;;;;;;;0.78;71.29;99052.50;5092075;28;20020;-52
2023/12/18 05:44:13;;;;;;;9.20;1.77;;;;;;;0.61;71.22;99003.34;5091917;28;20439;-55
2023/12/18 05:46:39;;;;;;;7.85;2.00;;;;;;;0.96;70.27;99050.66;5091544;28;20032;-56
2023/12/18 05:49:04;;;;;;;9.82;2.38;;;;;;;0.96;70.26;99048.03;5075082;28;20036;-51
2023/12/18 05:51:30;;;;;;;7.68;1.88;;;;;;;0.90;71.15;99047.53;5072766;28;20040;-60
2023/12/18 05:53:55;;;;;;;6.85;1.75;;;;;;;0.91;71.50;99050.06;5077583;28;20038;-56
2023/12/18 05:56:21;;;;;;;9.35;1.92;;;;;;;0.94;70.94;99038.53;5085402;28;20033;-60
2023/12/18 05:58:46;;;;;;;10.75;2.85;;;;;;;0.93;71.09;99042.09;5072766;28;20028;-55
2023/12/18 06:01:12;;;;;;;7.88;2.22;;;;;;;0.98;70.88;99037.41;5080203;28;20039;-59
2023/12/18 06:03:37;;;;;;;6.10;1.90;;;;;;;0.67;70.69;98991.63;5091538;28;20131;-54
2023/12/18 06:06:03;;;;;;;9.13;2.55;;;;;;;0.97;70.63;99048.91;5078722;28;20033;-61
2023/12/18 06:08:29;;;;;;;8.80;2.17;;;;;;;0.99;70.28;99037.34;5090532;28;20036;-64
2023/12/18 06:10:55;;;;;;;8.52;2.58;;;;;;;0.99;70.49;99040.00;5091568;28;20038;-57
2023/12/18 06:13:20;;;;;;;6.40;2.30;;;;;;;1.00;71.09;99046.97;5091262;28;20020;-60
2023/12/18 06:15:46;;;;;;;9.32;2.38;;;;;;;1.06;70.59;99042.28;5091809;28;20020;-57
2023/12/18 06:18:11;;;;;;;7.30;2.67;;;;;;;1.04;70.25;99030.97;5091561;28;20099;-58
2023/12/18 06:20:37;;;;;;;9.25;1.85;;;;;;;1.09;70.18;99052.66;5093992;28;20028;-55
2023/12/18 06:23:03;;;;;;;9.90;2.15;;;;;;;1.07;70.33;99041.34;5092430;28;20023;-59
2023/12/18 06:25:28;;;;;;;8.23;2.25;;;;;;;1.09;70.22;99052.66;5094813;28;20400;-56
2023/12/18 06:27:54;;;;;;;10.60;2.50;;;;;;;1.11;70.22;99050.78;5094500;28;20051;-59
2023/12/18 06:30:20;;;;;;;5.80;2.13;;;;;;;1.21;69.11;99059.06;5095303;28;20100;-54
2023/12/18 06:32:46;;;;;;;9.40;2.42;;;;;;;0.85;69.75;99014.38;5095830;28;20040;-59
2023/12/18 06:35:11;;;;;;;11.52;2.47;;;;;;;1.11;70.47;99046.38;5094044;28;20028;-56
2023/12/18 06:37:37;;;;;;;8.43;2.65;;;;;;;1.19;70.72;99055.66;5075755;28;20391;-56
2023/12/18 06:40:03;;;;;;;9.57;2.40;;;;;;;1.19;70.10;99040.66;5092084;28;20032;-59
2023/12/18 06:42:31;;;;;;;6.53;2.58;;;;;;;1.14;70.26;99030.41;5075879;28;20040;-56
2023/12/18 06:44:56;;;;;;;8.77;2.88;;;;;;;1.27;70.16;99048.16;5075493;28;20088;-59
2023/12/18 06:47:22;;;;;;;9.10;2.65;;;;;;;1.31;69.69;99051.50;5078278;28;20441;-57
2023/12/18 06:49:47;;;;;;;8.70;2.63;;;;;;;1.28;69.80;99048.09;5084359;28;20100;-59
2023/12/18 06:52:14;;;;;;;6.72;2.30;;;;;;;1.07;70.24;99031.63;5075537;28;20036;-58
2023/12/18 06:54:40;;;;;;;11.93;2.33;;;;;;;1.29;69.00;99070.03;5080625;28;20035;-58
2023/12/18 06:57:06;;;;;;;8.68;2.47;;;;;;;0.99;69.75;99020.66;5088053;28;20370;-55
2023/12/18 06:59:31;;;;;;;6.50;2.42;;;;;;;1.33;69.60;99063.69;5079072;28;20068;-57
2023/12/18 07:01:57;;;;;;;10.73;2.83;;;;;;;1.36;69.34;99060.00;5085783;28;20028;-56
2023/12/18 07:04:22;;;;;;;8.27;2.10;;;;;;;1.41;69.50;99050.91;5077688;28;20118;-57
2023/12/18 07:06:48;;;;;;;9.27;2.30;;;;;;;1.39;69.28;99059.81;5076850;28;20028;-57
2023/12/18 07:09:13;;;;;;;10.05;2.40;;;;;;;1.48;69.14;99058.47;5093682;28;20039;-57
2023/12/18 07:11:39;;;;;;;5.90;2.42;;;;;;;1.39;69.25;99046.63;5081383;28;20024;-58
2023/12/18 07:14:04;;;;;;;11.57;3.13;;;;;;;1.33;69.49;99044.34;5094464;28;20501;-56
2023/12/18 07:16:30;;;;;;;6.05;2.30;;;;;;;1.38;69.42;99055.50;5094986;28;20059;-56
2023/12/18 07:18:56;;;;;;;3.90;2.08;;;;;;;1.52;69.47;99067.91;5088622;28;20024;-56
2023/12/18 07:21:21;;;;;;;6.63;2.28;;;;;;;1.49;69.11;99050.50;5090767;28;20038;-58
2023/12/18 07:23:47;;;;;;;7.22;2.25;;;;;;;1.64;68.98;99066.38;5087582;28;20628;-58
2023/12/18 07:26:13;;;;;;;5.93;2.78;;;;;;;1.70;68.54;99037.88;5091680;28;20125;-56
2023/12/18 07:28:42;;;;;;;7.53;2.40;;;;;;;1.86;68.45;99048.41;5093151;28;20040;-56
2023/12/18 07:31:08;;;;;;;6.35;2.13;;;;;;;1.93;68.10;99048.03;5089094;28;20958;-55
2023/12/18 07:33:35;;;;;;;9.13;2.60;;;;;;;1.71;67.81;99004.41;5092317;28;20545;-58
2023/12/18 07:36:02;;;;;;;8.52;2.70;;;;;;;2.00;68.37;99058.16;5074839;28;20054;-56
2023/12/18 07:38:29;;;;;;;8.90;2.55;;;;;;;2.10;68.00;99055.00;5084217;28;20380;-56
2023/12/18 07:40:55;;;;;;;3.38;1.88;;;;;;;1.84;67.82;99004.56;5091304;28;20039;-59
2023/12/18 07:43:21;;;;;;;7.00;2.40;;;;;;;2.13;67.95;99053.03;5077893;28;20036;-58
2023/12/18 07:45:46;;;;;;;9.48;2.25;;;;;;;2.22;67.76;99061.38;5087057;28;20028;-56
2023/12/18 07:48:12;;;;;;;6.05;2.63;;;;;;;2.26;67.83;99071.63;5083369;28;20028;-59
2023/12/18 07:50:37;;;;;;;8.95;2.83;;;;;;;2.30;67.68;99067.03;5088018;28;20036;-54
2023/12/18 07:53:03;;;;;;;6.60;2.67;;;;;;;2.07;67.71;99008.50;5084670;28;20585;-54
2023/12/18 07:55:29;;;;;;;10.18;3.22;;;;;;;2.46;68.03;99050.28;5083344;28;20044;-57
2023/12/18 07:57:54;;;;;;;6.95;2.85;;;;;;;2.49;67.11;99044.81;5081877;28;20359;-57
2023/12/18 08:00:20;;;;;;;8.32;3.00;;;;;;;2.63;66.90;99051.91;5082945;28;20442;-58
2023/12/18 08:02:46;;;;;;;7.38;3.03;;;;;;;2.85;67.41;99056.75;5084131;28;20025;-55
2023/12/18 08:05:11;;;;;;;9.02;2.78;;;;;;;3.11;66.48;99033.13;5084811;28;20033;-57
2023/12/18 08:07:37;;;;;;;7.15;2.53;;;;;;;3.23;66.03;99003.25;5078646;28;20468;-56
2023/12/18 08:10:03;;;;;;;12.85;2.78;;;;;;;3.48;65.01;99029.94;5080771;28;20024;-57
2023/12/18 08:12:30;;;;;;;7.03;2.90;;;;;;;3.67;65.17;99037.56;5093305;28;20024;-57
2023/12/18 08:14:56;;;;;;;9.73;2.90;;;;;;;3.68;64.76;99026.03;5093122;28;20426;-56
2023/12/18 08:17:21;;;;;;;6.70;2.65;;;;;;;3.61;65.14;99032.66;5092815;28;20410;-57
2023/12/18 08:19:47;;;;;;;6.10;2.20;;;;;;;3.48;64.96;99025.50;5092920;28;20032;-56
2023/12/18 08:22:14;;;;;;;8.13;2.40;;;;;;;3.33;65.54;99037.94;5092781;28;20024;-56
2023/12/18 08:24:39;;;;;;;8.07;2.72;;;;;;;3.25;66.60;99037.53;5097963;28;20031;-53
2023/12/18 08:27:05;;;;;;;9.68;2.38;;;;;;;3.16;66.94;99023.97;5070403;28;20362;-56
2023/12/18 08:29:31;;;;;;;11.73;2.88;;;;;;;2.92;66.40;98984.06;5070723;28;20447;-54
2023/12/18 08:31:56;;;;;;;7.35;2.80;;;;;;;3.26;66.34;99040.09;5073720;28;20040;-54
2023/12/18 08:34:24;;;;;;;7.78;2.42;;;;;;;3.22;65.89;99041.25;5083738;28;20723;-52
2023/12/18 08:36:49;;;;;;;6.70;2.50;;;;;;;3.21;66.44;99042.19;5092991;28;20031;-53
2023/12/18 08:39:15;;;;;;;8.20;2.33;;;;;;;3.14;66.32;99022.38;5108147;28;20038;-56
2023/12/18 08:41:43;;;;;;;8.82;2.63;;;;;;;3.21;67.06;99055.41;5112223;28;20034;-50
2023/12/18 08:44:10;;;;;;;6.70;2.15;;;;;;;3.17;66.70;99045.97;5096520;28;20036;-54
2023/12/18 08:46:36;;;;;;;5.32;2.15;;;;;;;3.21;67.59;99042.19;5087846;28;20036;-56
2023/12/18 08:49:01;;;;;;;7.35;2.40;;;;;;;3.21;67.79;99036.03;5081373;28;20339;-54
2023/12/18 08:51:27;;;;;;;6.50;2.70;;;;;;;2.71;67.23;98947.44;5088012;28;20085;-53
2023/12/18 08:53:54;;;;;;;12.73;3.00;;;;;;;3.35;67.62;99040.47;5092239;28;20438;-52
2023/12/18 08:56:20;;;;;;;10.00;2.70;;;;;;;3.23;67.52;99005.03;5092289;28;20616;-56
2023/12/18 08:58:46;;;;;;;8.15;2.33;;;;;;;3.38;67.03;99019.97;5092120;28;20031;-54
2023/12/18 09:01:11;;;;;;;5.72;2.70;;;;;;;3.42;67.66;99017.97;5092353;28;20119;-55
2023/12/18 09:03:37;;;;;;;6.82;2.50;;;;;;;3.42;68.04;99015.31;5077545;28;20056;-56
2023/12/18 09:06:02;;;;;;;7.40;2.85;;;;;;;3.38;67.84;99014.66;5078175;28;20032;-53
2023/12/18 09:08:31;;;;;;;8.68;3.22;;;;;;;3.37;68.26;99025.34;5089279;28;20028;-57
2023/12/18 09:10:57;;;;;;;7.25;3.03;;;;;;;3.15;68.36;98989.69;5091957;28;20036;-57
2023/12/18 09:13:22;;;;;;;8.25;2.90;;;;;;;3.38;69.05;99024.41;5089612;28;20431;-59
2023/12/18 09:15:48;;;;;;;8.95;3.13;;;;;;;3.34;68.31;99017.59;5071928;28;20032;-60
2023/12/18 09:18:13;;;;;;;6.57;2.85;;;;;;;3.27;68.92;99011.88;5081568;28;20039;-58
2023/12/18 09:20:40;;;;;;;9.80;3.05;;;;;;;3.22;68.65;99003.34;5083539;28;20035;-58
2023/12/18 09:23:08;;;;;;;6.88;3.20;;;;;;;3.26;68.72;99012.81;5091208;28;20032;-59
2023/12/18 09:25:34;;;;;;;9.05;3.25;;;;;;;3.20;69.20;99021.97;5091585;28;20048;-59
2023/12/18 09:28:10;;;;;;;4.90;2.70;;;;;;;3.25;69.48;99022.53;5089017;28;20086;-59
2023/12/18 09:30:40;;;;;;;8.77;3.22;;;;;;;3.10;69.71;99005.84;5088809;28;20373;-57
2023/12/18 09:33:06;;;;;;;8.55;2.92;;;;;;;3.18;69.93;99013.28;5089160;28;20099;-54
2023/12/18 09:35:32;;;;;;;6.25;2.85;;;;;;;3.32;69.26;99016.84;5090321;28;20028;-59
2023/12/18 09:37:58;;;;;;;7.20;3.33;;;;;;;3.36;69.63;99005.13;5086717;28;20107;-56
2023/12/18 09:40:23;;;;;;;11.85;3.63;;;;;;;3.40;69.35;99012.75;5092138;28;20066;-60
2023/12/18 09:42:53;;;;;;;10.68;3.33;;;;;;;3.40;69.21;99014.56;5092226;28;20047;-61
2023/12/18 09:45:23;;;;;;;8.85;3.50;;;;;;;3.37;70.14;99010.31;5091901;28;20088;-58
2023/12/18 09:47:52;;;;;;;8.05;3.75;;;;;;;3.35;70.29;99014.00;5091882;28;20047;-57
2023/12/18 09:50:18;;;;;;;8.75;4.15;;;;;;;3.36;70.45;99015.69;5089843;28;20036;-55
2023/12/18 09:53:02;;;;;;;9.70;3.95;;;;;;;3.50;70.65;99006.91;5087105;28;20032;-56
2023/12/18 09:55:30;;;;;;;8.80;4.32;;;;;;;3.38;70.37;98992.66;5092140;28;20024;-57
2023/12/18 09:57:58;;;;;;;8.07;3.78;;;;;;;3.42;69.97;99004.75;5091769;28;20052;-56
2023/12/18 10:00:24;;;;;;;9.10;4.20;;;;;;;3.49;70.20;98991.94;5092639;28;20028;-59
2023/12/18 10:02:50;;;;;;;7.38;4.03;;;;;;;3.49;69.37;98989.28;5092529;28;20032;-58
2023/12/18 10:05:16;;;;;;;9.80;4.53;;;;;;;3.48;70.08;98996.41;5091605;28;20047;-60
2023/12/18 10:07:41;;;;;;;8.32;4.63;;;;;;;3.34;69.17;98981.41;5090882;28;20039;-59
2023/12/18 10:10:07;;;;;;;8.55;4.55;;;;;;;3.39;70.00;98981.97;5093019;28;20032;-58
2023/12/18 10:12:32;;;;;;;8.13;4.45;;;;;;;3.41;70.79;98989.81;5093262;28;20079;-59
2023/12/18 10:14:58;;;;;;;16.45;4.80;;;;;;;3.41;70.30;98984.53;5095347;28;20035;-60
2023/12/18 10:17:24;;;;;;;9.07;4.40;;;;;;;3.47;70.01;98973.53;5094540;28;20024;-59
2023/12/18 10:19:50;;;;;;;7.68;4.20;;;;;;;3.55;70.40;98987.09;5088961;28;20061;-56
2023/12/18 10:22:18;;;;;;;7.15;4.32;;;;;;;3.57;70.04;98981.72;5093921;28;20032;-59
2023/12/18 10:24:45;;;;;;;15.25;9.55;;;;;;;3.54;69.81;98977.47;5093188;28;20028;-57
2023/12/18 10:27:10;;;;;;;10.88;5.50;;;;;;;3.49;70.16;98987.50;5074974;28;20032;-53
2023/12/18 10:29:36;;;;;;;6.85;4.55;;;;;;;3.50;70.15;98975.97;5086667;28;20047;-52
2023/12/18 10:32:02;;;;;;;8.70;4.50;;;;;;;3.51;70.13;98980.31;5095107;28;20119;-53
2023/12/18 10:34:28;;;;;;;11.00;4.63;;;;;;;3.53;70.12;98982.88;5093622;28;20066;-53
2023/12/18 10:36:55;;;;;;;9.07;4.45;;;;;;;3.50;70.42;98975.97;5093216;28;20135;-53
2023/12/18 10:39:29;;;;;;;10.45;4.30;;;;;;;3.42;70.68;98967.69;5091248;28;20024;-54
2023/12/18 10:41:59;;;;;;;10.65;5.00;;;;;;;3.46;70.49;98985.06;5092823;28;20028;-55
2023/12/18 10:44:26;;;;;;;6.97;4.20;;;;;;;3.40;71.04;98980.19;5092339;28;20024;-51
2023/12/18 10:46:53;;;;;;;7.05;4.82;;;;;;;3.42;70.90;98980.94;5089897;28;20023;-59
2023/12/18 10:49:20;;;;;;;10.20;4.72;;;;;;;3.42;70.99;99002.94;5093887;28;20032;-60
2023/12/18 10:51:46;;;;;;;10.70;5.82;;;;;;;3.40;71.05;98996.88;5084335;28;20644;-58
2023/12/18 10:54:12;;;;;;;8.85;4.43;;;;;;;3.38;71.14;98996.13;5091121;28;20730;-57
2023/12/18 10:56:44;;;;;;;10.43;4.47;;;;;;;3.39;70.97;98995.19;5077603;28;20143;-59
2023/12/18 10:59:13;;;;;;;9.63;4.20;;;;;;;3.27;70.75;98974.81;5079811;28;20494;-60
2023/12/18 11:01:39;;;;;;;11.80;4.65;;;;;;;3.31;71.00;99005.44;5081806;28;20031;-58
2023/12/18 11:04:05;;;;;;;8.65;4.78;;;;;;;3.25;70.86;98993.44;5088562;28;20355;-61
2023/12/18 11:06:32;;;;;;;9.18;4.82;;;;;;;3.21;71.34;98989.28;5090542;28;20023;-58
2023/12/18 11:08:57;;;;;;;8.98;4.38;;;;;;;3.26;70.81;98995.13;5090584;28;20023;-61
2023/12/18 11:11:24;;;;;;;8.32;4.20;;;;;;;3.32;71.14;98993.03;5092703;28;20031;-63
2023/12/18 11:14:13;;;;;;;7.50;3.85;;;;;;;3.39;70.37;98999.66;5092030;28;20028;-63
2023/12/18 11:16:59;;;;;;;11.30;3.47;;;;;;;3.32;70.18;98999.19;5089995;28;20035;-63
2023/12/18 11:19:43;;;;;;;6.22;3.42;;;;;;;3.24;70.98;98996.16;5087958;28;20508;-62
2023/12/18 11:22:09;;;;;;;6.10;3.55;;;;;;;3.08;71.71;99002.44;5093373;28;20115;-60
2023/12/18 11:24:36;;;;;;;7.97;4.00;;;;;;;3.13;71.71;99007.41;5094037;28;20107;-59
2023/12/18 11:27:04;;;;;;;5.18;3.30;;;;;;;3.09;71.33;98993.56;5094446;28;20074;-63
2023/12/18 11:29:48;;;;;;;7.97;3.55;;;;;;;3.22;71.99;98996.28;5088579;28;20059;-63
2023/12/18 11:32:40;;;;;;;11.32;4.03;;;;;;;3.28;71.87;98995.88;5093483;28;20671;-62
2023/12/18 11:35:13;;;;;;;5.72;3.13;;;;;;;3.14;71.36;98991.47;5070302;28;20340;-62